sensor_id;sensor_type;location;lat;lon;timestamp;pressure;altitude;pressure_sealevel;temperature
22828;BMP180;11580;52.562;13.418;2022-07-04T00:01:55;100724.00;;;25.30
22828;BMP180;11580;52.562;13.418;2022-07-04T00:04:22;100727.00;;;25.30
22828;BMP180;11580;52.562;13.418;2022-07-04T00:06:50;100724.00;;;25.30
22828;BMP180;11580;52.562;13.418;2022-07-04T00:09:18;100725.00;;;25.20
22828;BMP180;11580;52.562;13.418;2022-07-04T00:11:45;100732.00;;;25.20
22828;BMP180;11580;52.562;13.418;2022-07-04T00:14:13;100729.00;;;25.10
22828;BMP180;11580;52.562;13.418;2022-07-04T00:16:40;100728.00;;;25.10
22828;BMP180;11580;52.562;13.418;2022-07-04T00:19:07;100722.00;;;25.00
22828;BMP180;11580;52.562;13.418;2022-07-04T00:21:34;100716.00;;;25.00
22828;BMP180;11580;52.562;13.418;2022-07-04T00:24:02;100725.00;;;24.90
22828;BMP180;11580;52.562;13.418;2022-07-04T00:26:30;100712.00;;;24.80
22828;BMP180;11580;52.562;13.418;2022-07-04T00:28:58;100715.00;;;24.70
22828;BMP180;11580;52.562;13.418;2022-07-04T00:31:25;100715.00;;;24.70
22828;BMP180;11580;52.562;13.418;2022-07-04T00:33:52;100711.00;;;24.60
22828;BMP180;11580;52.562;13.418;2022-07-04T00:36:20;100706.00;;;24.60
22828;BMP180;11580;52.562;13.418;2022-07-04T00:38:47;100693.00;;;24.50
22828;BMP180;11580;52.562;13.418;2022-07-04T00:41:14;100699.00;;;24.50
22828;BMP180;11580;52.562;13.418;2022-07-04T00:43:43;100686.00;;;24.40
22828;BMP180;11580;52.562;13.418;2022-07-04T00:46:10;100685.00;;;24.30
22828;BMP180;11580;52.562;13.418;2022-07-04T00:48:37;100684.00;;;24.20
22828;BMP180;11580;52.562;13.418;2022-07-04T00:51:04;100669.00;;;24.20
22828;BMP180;11580;52.562;13.418;2022-07-04T00:53:32;100671.00;;;24.10
22828;BMP180;11580;52.562;13.418;2022-07-04T00:55:59;100669.00;;;24.00
22828;BMP180;11580;52.562;13.418;2022-07-04T00:58:26;100680.00;;;24.00
22828;BMP180;11580;52.562;13.418;2022-07-04T01:00:55;100676.00;;;23.90
22828;BMP180;11580;52.562;13.418;2022-07-04T01:03:23;100689.00;;;23.90
22828;BMP180;11580;52.562;13.418;2022-07-04T01:05:51;100692.00;;;23.80
22828;BMP180;11580;52.562;13.418;2022-07-04T01:08:19;100709.00;;;23.70
22828;BMP180;11580;52.562;13.418;2022-07-04T01:10:46;100715.00;;;23.70
22828;BMP180;11580;52.562;13.418;2022-07-04T01:13:20;100709.00;;;23.60
22828;BMP180;11580;52.562;13.418;2022-07-04T01:15:49;100709.00;;;23.50
22828;BMP180;11580;52.562;13.418;2022-07-04T01:18:18;100710.00;;;23.50
22828;BMP180;11580;52.562;13.418;2022-07-04T01:20:46;100718.00;;;23.50
22828;BMP180;11580;52.562;13.418;2022-07-04T01:23:14;100713.00;;;23.40
22828;BMP180;11580;52.562;13.418;2022-07-04T01:25:42;100723.00;;;23.40
22828;BMP180;11580;52.562;13.418;2022-07-04T01:28:10;100725.00;;;23.30
22828;BMP180;11580;52.562;13.418;2022-07-04T01:30:38;100731.00;;;23.30
22828;BMP180;11580;52.562;13.418;2022-07-04T01:33:05;100729.00;;;23.20
22828;BMP180;11580;52.562;13.418;2022-07-04T01:35:33;100739.00;;;23.20
22828;BMP180;11580;52.562;13.418;2022-07-04T01:38:01;100737.00;;;23.10
22828;BMP180;11580;52.562;13.418;2022-07-04T01:40:29;100734.00;;;23.10
22828;BMP180;11580;52.562;13.418;2022-07-04T01:42:57;100751.00;;;23.00
22828;BMP180;11580;52.562;13.418;2022-07-04T01:45:25;100755.00;;;23.00
22828;BMP180;11580;52.562;13.418;2022-07-04T01:47:52;100755.00;;;22.90
22828;BMP180;11580;52.562;13.418;2022-07-04T01:50:20;100759.00;;;22.80
22828;BMP180;11580;52.562;13.418;2022-07-04T01:52:47;100761.00;;;22.80
22828;BMP180;11580;52.562;13.418;2022-07-04T01:55:16;100759.00;;;22.70
22828;BMP180;11580;52.562;13.418;2022-07-04T01:57:43;100750.00;;;22.70
22828;BMP180;11580;52.562;13.418;2022-07-04T02:00:12;100763.00;;;22.60
22828;BMP180;11580;52.562;13.418;2022-07-04T02:02:57;100747.00;;;22.50
22828;BMP180;11580;52.562;13.418;2022-07-04T02:05:24;100762.00;;;22.50
22828;BMP180;11580;52.562;13.418;2022-07-04T02:07:51;100757.00;;;22.40
22828;BMP180;11580;52.562;13.418;2022-07-04T02:10:20;100766.00;;;22.40
22828;BMP180;11580;52.562;13.418;2022-07-04T02:12:47;100779.00;;;22.40
22828;BMP180;11580;52.562;13.418;2022-07-04T02:15:32;100777.00;;;22.30
22828;BMP180;11580;52.562;13.418;2022-07-04T02:18:00;100779.00;;;22.30
22828;BMP180;11580;52.562;13.418;2022-07-04T02:20:28;100769.00;;;22.20
22828;BMP180;11580;52.562;13.418;2022-07-04T02:22:56;100776.00;;;22.20
22828;BMP180;11580;52.562;13.418;2022-07-04T02:25:25;100771.00;;;22.10
22828;BMP180;11580;52.562;13.418;2022-07-04T02:27:54;100775.00;;;22.00
22828;BMP180;11580;52.562;13.418;2022-07-04T02:30:22;100768.00;;;22.00
22828;BMP180;11580;52.562;13.418;2022-07-04T02:32:50;100766.00;;;22.00
22828;BMP180;11580;52.562;13.418;2022-07-04T02:35:17;100775.00;;;21.90
22828;BMP180;11580;52.562;13.418;2022-07-04T02:37:45;100779.00;;;21.80
22828;BMP180;11580;52.562;13.418;2022-07-04T02:40:12;100783.00;;;21.80
22828;BMP180;11580;52.562;13.418;2022-07-04T02:42:40;100774.00;;;21.80
22828;BMP180;11580;52.562;13.418;2022-07-04T02:45:09;100786.00;;;21.70
22828;BMP180;11580;52.562;13.418;2022-07-04T02:47:36;100789.00;;;21.70
22828;BMP180;11580;52.562;13.418;2022-07-04T02:50:04;100792.00;;;21.60
22828;BMP180;11580;52.562;13.418;2022-07-04T02:52:32;100791.00;;;21.60
22828;BMP180;11580;52.562;13.418;2022-07-04T02:54:59;100793.00;;;21.60
22828;BMP180;11580;52.562;13.418;2022-07-04T02:57:27;100802.00;;;21.60
22828;BMP180;11580;52.562;13.418;2022-07-04T02:59:56;100788.00;;;21.60
22828;BMP180;11580;52.562;13.418;2022-07-04T03:02:23;100796.00;;;21.50
22828;BMP180;11580;52.562;13.418;2022-07-04T03:04:50;100796.00;;;21.50
22828;BMP180;11580;52.562;13.418;2022-07-04T03:07:18;100791.00;;;21.60
22828;BMP180;11580;52.562;13.418;2022-07-04T03:09:45;100784.00;;;21.60
22828;BMP180;11580;52.562;13.418;2022-07-04T03:12:12;100775.00;;;21.60
22828;BMP180;11580;52.562;13.418;2022-07-04T03:14:39;100772.00;;;21.60
22828;BMP180;11580;52.562;13.418;2022-07-04T03:17:08;100774.00;;;21.60
22828;BMP180;11580;52.562;13.418;2022-07-04T03:19:35;100775.00;;;21.70
22828;BMP180;11580;52.562;13.418;2022-07-04T03:22:03;100775.00;;;21.80
22828;BMP180;11580;52.562;13.418;2022-07-04T03:24:30;100798.00;;;21.90
22828;BMP180;11580;52.562;13.418;2022-07-04T03:26:57;100805.00;;;22.10
22828;BMP180;11580;52.562;13.418;2022-07-04T03:29:25;100820.00;;;22.20
22828;BMP180;11580;52.562;13.418;2022-07-04T03:31:52;100814.00;;;22.30
22828;BMP180;11580;52.562;13.418;2022-07-04T03:34:21;100820.00;;;22.30
22828;BMP180;11580;52.562;13.418;2022-07-04T03:36:48;100819.00;;;22.30
22828;BMP180;11580;52.562;13.418;2022-07-04T03:39:15;100823.00;;;22.30
22828;BMP180;11580;52.562;13.418;2022-07-04T03:41:43;100823.00;;;22.30
22828;BMP180;11580;52.562;13.418;2022-07-04T03:44:10;100827.00;;;22.40
22828;BMP180;11580;52.562;13.418;2022-07-04T03:46:37;100828.00;;;22.40
22828;BMP180;11580;52.562;13.418;2022-07-04T03:49:04;100825.00;;;22.40
22828;BMP180;11580;52.562;13.418;2022-07-04T03:51:33;100829.00;;;22.50
22828;BMP180;11580;52.562;13.418;2022-07-04T03:54:00;100837.00;;;22.50
22828;BMP180;11580;52.562;13.418;2022-07-04T03:56:27;100835.00;;;22.50
22828;BMP180;11580;52.562;13.418;2022-07-04T03:58:55;100847.00;;;22.60
22828;BMP180;11580;52.562;13.418;2022-07-04T04:01:22;100857.00;;;22.60
22828;BMP180;11580;52.562;13.418;2022-07-04T04:03:50;100849.00;;;22.70
22828;BMP180;11580;52.562;13.418;2022-07-04T04:06:35;100854.00;;;22.70
22828;BMP180;11580;52.562;13.418;2022-07-04T04:09:03;100855.00;;;22.90
22828;BMP180;11580;52.562;13.418;2022-07-04T04:11:30;100872.00;;;23.00
22828;BMP180;11580;52.562;13.418;2022-07-04T04:13:58;100880.00;;;23.20
22828;BMP180;11580;52.562;13.418;2022-07-04T04:16:25;100888.00;;;23.40
22828;BMP180;11580;52.562;13.418;2022-07-04T04:18:52;100887.00;;;23.60
22828;BMP180;11580;52.562;13.418;2022-07-04T04:21:19;100890.00;;;23.80
22828;BMP180;11580;52.562;13.418;2022-07-04T04:23:48;100888.00;;;24.10
22828;BMP180;11580;52.562;13.418;2022-07-04T04:26:15;100888.00;;;24.40
22828;BMP180;11580;52.562;13.418;2022-07-04T04:28:43;100892.00;;;24.80
22828;BMP180;11580;52.562;13.418;2022-07-04T04:31:10;100890.00;;;25.20
22828;BMP180;11580;52.562;13.418;2022-07-04T04:33:38;100894.00;;;25.70
22828;BMP180;11580;52.562;13.418;2022-07-04T04:36:06;100895.00;;;26.20
22828;BMP180;11580;52.562;13.418;2022-07-04T04:38:33;100891.00;;;26.70
22828;BMP180;11580;52.562;13.418;2022-07-04T04:41:02;100896.00;;;27.00
22828;BMP180;11580;52.562;13.418;2022-07-04T04:43:29;100905.00;;;27.40
22828;BMP180;11580;52.562;13.418;2022-07-04T04:45:57;100903.00;;;27.80
22828;BMP180;11580;52.562;13.418;2022-07-04T04:48:24;100914.00;;;28.20
22828;BMP180;11580;52.562;13.418;2022-07-04T04:50:51;100900.00;;;28.40
22828;BMP180;11580;52.562;13.418;2022-07-04T04:53:19;100913.00;;;28.50
22828;BMP180;11580;52.562;13.418;2022-07-04T04:55:48;100920.00;;;28.60
22828;BMP180;11580;52.562;13.418;2022-07-04T04:58:17;100913.00;;;28.80
22828;BMP180;11580;52.562;13.418;2022-07-04T05:00:44;100924.00;;;28.80
22828;BMP180;11580;52.562;13.418;2022-07-04T05:03:11;100925.00;;;28.90
22828;BMP180;11580;52.562;13.418;2022-07-04T05:05:39;100923.00;;;28.90
22828;BMP180;11580;52.562;13.418;2022-07-04T05:08:06;100929.00;;;28.80
22828;BMP180;11580;52.562;13.418;2022-07-04T05:10:33;100931.00;;;28.80
22828;BMP180;11580;52.562;13.418;2022-07-04T05:13:02;100930.00;;;28.70
22828;BMP180;11580;52.562;13.418;2022-07-04T05:15:32;100924.00;;;28.70
22828;BMP180;11580;52.562;13.418;2022-07-04T05:17:59;100931.00;;;28.60
22828;BMP180;11580;52.562;13.418;2022-07-04T05:20:26;100935.00;;;28.60
22828;BMP180;11580;52.562;13.418;2022-07-04T05:22:53;100938.00;;;28.50
22828;BMP180;11580;52.562;13.418;2022-07-04T05:25:21;100929.00;;;28.30
22828;BMP180;11580;52.562;13.418;2022-07-04T05:27:48;100938.00;;;28.20
22828;BMP180;11580;52.562;13.418;2022-07-04T05:30:16;100944.00;;;28.10
22828;BMP180;11580;52.562;13.418;2022-07-04T05:32:44;100950.00;;;28.00
22828;BMP180;11580;52.562;13.418;2022-07-04T05:35:12;100958.00;;;27.90
22828;BMP180;11580;52.562;13.418;2022-07-04T05:37:39;100967.00;;;27.80
22828;BMP180;11580;52.562;13.418;2022-07-04T05:40:07;100968.00;;;27.70
22828;BMP180;11580;52.562;13.418;2022-07-04T05:42:35;100971.00;;;27.60
22828;BMP180;11580;52.562;13.418;2022-07-04T05:45:03;100976.00;;;27.40
22828;BMP180;11580;52.562;13.418;2022-07-04T05:47:31;100960.00;;;27.20
22828;BMP180;11580;52.562;13.418;2022-07-04T05:49:59;100949.00;;;27.00
22828;BMP180;11580;52.562;13.418;2022-07-04T05:52:28;100952.00;;;26.80
22828;BMP180;11580;52.562;13.418;2022-07-04T05:54:55;100953.00;;;26.60
22828;BMP180;11580;52.562;13.418;2022-07-04T05:57:22;100951.00;;;26.40
22828;BMP180;11580;52.562;13.418;2022-07-04T05:59:50;100966.00;;;26.20
22828;BMP180;11580;52.562;13.418;2022-07-04T06:02:17;100965.00;;;26.10
22828;BMP180;11580;52.562;13.418;2022-07-04T06:04:44;100965.00;;;26.00
22828;BMP180;11580;52.562;13.418;2022-07-04T06:07:13;100971.00;;;25.80
22828;BMP180;11580;52.562;13.418;2022-07-04T06:09:40;100963.00;;;25.70
22828;BMP180;11580;52.562;13.418;2022-07-04T06:12:08;100967.00;;;25.50
22828;BMP180;11580;52.562;13.418;2022-07-04T06:14:35;100969.00;;;25.30
22828;BMP180;11580;52.562;13.418;2022-07-04T06:17:03;100970.00;;;25.20
22828;BMP180;11580;52.562;13.418;2022-07-04T06:19:30;100963.00;;;25.00
22828;BMP180;11580;52.562;13.418;2022-07-04T06:21:58;100959.00;;;24.90
22828;BMP180;11580;52.562;13.418;2022-07-04T06:24:26;100970.00;;;24.80
22828;BMP180;11580;52.562;13.418;2022-07-04T06:26:54;100975.00;;;24.70
22828;BMP180;11580;52.562;13.418;2022-07-04T06:29:21;100979.00;;;24.60
22828;BMP180;11580;52.562;13.418;2022-07-04T06:31:48;100988.00;;;24.50
22828;BMP180;11580;52.562;13.418;2022-07-04T06:34:15;100980.00;;;24.30
22828;BMP180;11580;52.562;13.418;2022-07-04T06:37:00;100986.00;;;24.30
22828;BMP180;11580;52.562;13.418;2022-07-04T06:39:28;100974.00;;;24.30
22828;BMP180;11580;52.562;13.418;2022-07-04T06:41:56;100992.00;;;24.20
22828;BMP180;11580;52.562;13.418;2022-07-04T06:44:23;100994.00;;;24.30
22828;BMP180;11580;52.562;13.418;2022-07-04T06:46:50;101000.00;;;24.20
22828;BMP180;11580;52.562;13.418;2022-07-04T06:49:17;101004.00;;;24.20
22828;BMP180;11580;52.562;13.418;2022-07-04T06:51:45;100998.00;;;24.20
22828;BMP180;11580;52.562;13.418;2022-07-04T06:54:12;100995.00;;;24.30
22828;BMP180;11580;52.562;13.418;2022-07-04T06:56:40;100993.00;;;24.20
22828;BMP180;11580;52.562;13.418;2022-07-04T06:59:08;100997.00;;;24.30
22828;BMP180;11580;52.562;13.418;2022-07-04T07:01:35;100990.00;;;24.30
22828;BMP180;11580;52.562;13.418;2022-07-04T07:04:02;100996.00;;;24.30
22828;BMP180;11580;52.562;13.418;2022-07-04T07:06:29;101010.00;;;24.40
22828;BMP180;11580;52.562;13.418;2022-07-04T07:08:57;100994.00;;;24.40
22828;BMP180;11580;52.562;13.418;2022-07-04T07:11:24;100995.00;;;24.50
22828;BMP180;11580;52.562;13.418;2022-07-04T07:13:53;101019.00;;;24.70
22828;BMP180;11580;52.562;13.418;2022-07-04T07:16:20;100999.00;;;24.80
22828;BMP180;11580;52.562;13.418;2022-07-04T07:18:48;101005.00;;;25.00
22828;BMP180;11580;52.562;13.418;2022-07-04T07:21:16;101013.00;;;25.10
22828;BMP180;11580;52.562;13.418;2022-07-04T07:23:43;101009.00;;;25.20
22828;BMP180;11580;52.562;13.418;2022-07-04T07:26:12;101003.00;;;25.30
22828;BMP180;11580;52.562;13.418;2022-07-04T07:28:39;101008.00;;;25.30
22828;BMP180;11580;52.562;13.418;2022-07-04T07:31:08;100992.00;;;25.50
22828;BMP180;11580;52.562;13.418;2022-07-04T07:33:35;101010.00;;;25.60
22828;BMP180;11580;52.562;13.418;2022-07-04T07:36:03;101017.00;;;25.70
22828;BMP180;11580;52.562;13.418;2022-07-04T07:38:30;101008.00;;;25.90
22828;BMP180;11580;52.562;13.418;2022-07-04T07:40:57;101021.00;;;26.00
22828;BMP180;11580;52.562;13.418;2022-07-04T07:43:24;101028.00;;;26.10
22828;BMP180;11580;52.562;13.418;2022-07-04T07:45:52;101028.00;;;26.20
22828;BMP180;11580;52.562;13.418;2022-07-04T07:48:20;101037.00;;;26.20
22828;BMP180;11580;52.562;13.418;2022-07-04T07:50:48;101031.00;;;26.20
22828;BMP180;11580;52.562;13.418;2022-07-04T07:53:15;101035.00;;;26.20
22828;BMP180;11580;52.562;13.418;2022-07-04T07:55:43;101008.00;;;26.20
22828;BMP180;11580;52.562;13.418;2022-07-04T07:58:10;101031.00;;;26.30
22828;BMP180;11580;52.562;13.418;2022-07-04T08:00:37;101039.00;;;26.40
22828;BMP180;11580;52.562;13.418;2022-07-04T08:03:05;101039.00;;;26.50
22828;BMP180;11580;52.562;13.418;2022-07-04T08:05:51;101042.00;;;26.60
22828;BMP180;11580;52.562;13.418;2022-07-04T08:08:18;101052.00;;;26.70
22828;BMP180;11580;52.562;13.418;2022-07-04T08:10:48;101041.00;;;26.70
22828;BMP180;11580;52.562;13.418;2022-07-04T08:13:15;101036.00;;;26.70
22828;BMP180;11580;52.562;13.418;2022-07-04T08:15:42;101036.00;;;26.60
22828;BMP180;11580;52.562;13.418;2022-07-04T08:18:10;101048.00;;;26.50
22828;BMP180;11580;52.562;13.418;2022-07-04T08:20:37;101041.00;;;26.40
22828;BMP180;11580;52.562;13.418;2022-07-04T08:23:06;101050.00;;;26.30
22828;BMP180;11580;52.562;13.418;2022-07-04T08:25:33;101040.00;;;26.20
22828;BMP180;11580;52.562;13.418;2022-07-04T08:28:00;101046.00;;;26.10
22828;BMP180;11580;52.562;13.418;2022-07-04T08:30:28;101035.00;;;26.00
22828;BMP180;11580;52.562;13.418;2022-07-04T08:32:55;101032.00;;;25.90
22828;BMP180;11580;52.562;13.418;2022-07-04T08:35:22;101044.00;;;25.70
22828;BMP180;11580;52.562;13.418;2022-07-04T08:37:49;101045.00;;;25.60
22828;BMP180;11580;52.562;13.418;2022-07-04T08:40:22;101035.00;;;25.60
22828;BMP180;11580;52.562;13.418;2022-07-04T08:42:50;101031.00;;;25.50
22828;BMP180;11580;52.562;13.418;2022-07-04T08:45:23;101038.00;;;25.60
22828;BMP180;11580;52.562;13.418;2022-07-04T08:47:59;101038.00;;;25.60
22828;BMP180;11580;52.562;13.418;2022-07-04T08:50:37;101038.00;;;25.60
22828;BMP180;11580;52.562;13.418;2022-07-04T08:53:11;101034.00;;;25.70
22828;BMP180;11580;52.562;13.418;2022-07-04T08:55:40;101033.00;;;25.90
22828;BMP180;11580;52.562;13.418;2022-07-04T08:58:26;101041.00;;;26.10
22828;BMP180;11580;52.562;13.418;2022-07-04T09:00:57;101038.00;;;26.30
22828;BMP180;11580;52.562;13.418;2022-07-04T09:03:26;101045.00;;;26.50
22828;BMP180;11580;52.562;13.418;2022-07-04T09:05:54;101031.00;;;26.60
22828;BMP180;11580;52.562;13.418;2022-07-04T09:08:22;101034.00;;;26.70
22828;BMP180;11580;52.562;13.418;2022-07-04T09:10:52;101045.00;;;26.70
22828;BMP180;11580;52.562;13.418;2022-07-04T09:13:20;101049.00;;;26.80
22828;BMP180;11580;52.562;13.418;2022-07-04T09:15:50;101053.00;;;26.80
22828;BMP180;11580;52.562;13.418;2022-07-04T09:18:24;101052.00;;;26.80
22828;BMP180;11580;52.562;13.418;2022-07-04T09:20:53;101055.00;;;26.90
22828;BMP180;11580;52.562;13.418;2022-07-04T09:23:23;101053.00;;;27.00
22828;BMP180;11580;52.562;13.418;2022-07-04T09:26:09;101045.00;;;27.00
22828;BMP180;11580;52.562;13.418;2022-07-04T09:28:38;101058.00;;;27.00
22828;BMP180;11580;52.562;13.418;2022-07-04T09:31:16;101044.00;;;27.00
22828;BMP180;11580;52.562;13.418;2022-07-04T09:33:53;101048.00;;;27.00
22828;BMP180;11580;52.562;13.418;2022-07-04T09:36:22;101051.00;;;27.00
22828;BMP180;11580;52.562;13.418;2022-07-04T09:39:09;101045.00;;;27.00
22828;BMP180;11580;52.562;13.418;2022-07-04T09:41:54;101040.00;;;27.00
22828;BMP180;11580;52.562;13.418;2022-07-04T09:44:22;101056.00;;;27.10
22828;BMP180;11580;52.562;13.418;2022-07-04T09:46:50;101054.00;;;27.20
22828;BMP180;11580;52.562;13.418;2022-07-04T09:49:17;101057.00;;;27.30
22828;BMP180;11580;52.562;13.418;2022-07-04T09:51:47;101063.00;;;27.40
22828;BMP180;11580;52.562;13.418;2022-07-04T09:54:21;101051.00;;;27.50
22828;BMP180;11580;52.562;13.418;2022-07-04T09:56:55;101061.00;;;27.60
22828;BMP180;11580;52.562;13.418;2022-07-04T09:59:24;101061.00;;;27.70
22828;BMP180;11580;52.562;13.418;2022-07-04T10:02:07;101061.00;;;27.70
22828;BMP180;11580;52.562;13.418;2022-07-04T10:04:46;101053.00;;;27.70
22828;BMP180;11580;52.562;13.418;2022-07-04T10:07:33;101059.00;;;27.70
22828;BMP180;11580;52.562;13.418;2022-07-04T10:10:29;101059.00;;;27.80
22828;BMP180;11580;52.562;13.418;2022-07-04T10:13:01;101058.00;;;27.90
22828;BMP180;11580;52.562;13.418;2022-07-04T10:15:29;101068.00;;;27.90
22828;BMP180;11580;52.562;13.418;2022-07-04T10:17:56;101063.00;;;28.00
22828;BMP180;11580;52.562;13.418;2022-07-04T10:20:24;101073.00;;;28.00
22828;BMP180;11580;52.562;13.418;2022-07-04T10:22:51;101067.00;;;27.90
22828;BMP180;11580;52.562;13.418;2022-07-04T10:25:19;101058.00;;;28.00
22828;BMP180;11580;52.562;13.418;2022-07-04T10:27:46;101071.00;;;28.00
22828;BMP180;11580;52.562;13.418;2022-07-04T10:30:22;101063.00;;;28.00
22828;BMP180;11580;52.562;13.418;2022-07-04T10:32:51;101067.00;;;28.00
22828;BMP180;11580;52.562;13.418;2022-07-04T10:35:49;101059.00;;;28.10
22828;BMP180;11580;52.562;13.418;2022-07-04T10:38:20;101051.00;;;28.10
22828;BMP180;11580;52.562;13.418;2022-07-04T10:40:50;101063.00;;;28.20
22828;BMP180;11580;52.562;13.418;2022-07-04T10:43:59;101065.00;;;28.40
22828;BMP180;11580;52.562;13.418;2022-07-04T10:46:46;101071.00;;;28.60
22828;BMP180;11580;52.562;13.418;2022-07-04T10:49:23;101061.00;;;28.80
22828;BMP180;11580;52.562;13.418;2022-07-04T10:51:54;101056.00;;;28.90
22828;BMP180;11580;52.562;13.418;2022-07-04T10:54:29;101065.00;;;28.90
22828;BMP180;11580;52.562;13.418;2022-07-04T10:57:09;101057.00;;;28.90
22828;BMP180;11580;52.562;13.418;2022-07-04T10:59:37;101062.00;;;28.90
22828;BMP180;11580;52.562;13.418;2022-07-04T11:02:28;101065.00;;;28.90
22828;BMP180;11580;52.562;13.418;2022-07-04T11:05:01;101056.00;;;28.80
22828;BMP180;11580;52.562;13.418;2022-07-04T11:08:00;101056.00;;;28.70
22828;BMP180;11580;52.562;13.418;2022-07-04T11:10:32;101058.00;;;28.50
22828;BMP180;11580;52.562;13.418;2022-07-04T11:13:17;101056.00;;;28.40
22828;BMP180;11580;52.562;13.418;2022-07-04T11:16:06;101057.00;;;28.30
22828;BMP180;11580;52.562;13.418;2022-07-04T11:18:44;101053.00;;;28.30
22828;BMP180;11580;52.562;13.418;2022-07-04T11:21:24;101042.00;;;28.40
22828;BMP180;11580;52.562;13.418;2022-07-04T11:23:54;101041.00;;;28.50
22828;BMP180;11580;52.562;13.418;2022-07-04T11:26:23;101033.00;;;28.70
22828;BMP180;11580;52.562;13.418;2022-07-04T11:28:51;101041.00;;;28.90
22828;BMP180;11580;52.562;13.418;2022-07-04T11:31:18;101038.00;;;29.00
22828;BMP180;11580;52.562;13.418;2022-07-04T11:33:47;101033.00;;;29.20
22828;BMP180;11580;52.562;13.418;2022-07-04T11:36:17;101040.00;;;29.40
22828;BMP180;11580;52.562;13.418;2022-07-04T11:38:53;101042.00;;;29.50
22828;BMP180;11580;52.562;13.418;2022-07-04T11:41:24;101041.00;;;29.70
22828;BMP180;11580;52.562;13.418;2022-07-04T11:44:12;101040.00;;;29.70
22828;BMP180;11580;52.562;13.418;2022-07-04T11:47:10;101043.00;;;29.60
22828;BMP180;11580;52.562;13.418;2022-07-04T11:49:48;101044.00;;;29.50
22828;BMP180;11580;52.562;13.418;2022-07-04T11:52:19;101036.00;;;29.40
22828;BMP180;11580;52.562;13.418;2022-07-04T11:54:48;101037.00;;;29.30
22828;BMP180;11580;52.562;13.418;2022-07-04T11:57:20;101035.00;;;29.20
22828;BMP180;11580;52.562;13.418;2022-07-04T11:59:59;101029.00;;;29.10
22828;BMP180;11580;52.562;13.418;2022-07-04T12:02:29;101024.00;;;29.10
22828;BMP180;11580;52.562;13.418;2022-07-04T12:05:00;101022.00;;;29.00
22828;BMP180;11580;52.562;13.418;2022-07-04T12:07:30;101020.00;;;29.00
22828;BMP180;11580;52.562;13.418;2022-07-04T12:10:08;101025.00;;;29.10
22828;BMP180;11580;52.562;13.418;2022-07-04T12:12:50;101025.00;;;29.30
22828;BMP180;11580;52.562;13.418;2022-07-04T12:15:19;101028.00;;;29.40
22828;BMP180;11580;52.562;13.418;2022-07-04T12:17:50;101024.00;;;29.50
22828;BMP180;11580;52.562;13.418;2022-07-04T12:20:22;101030.00;;;29.60
22828;BMP180;11580;52.562;13.418;2022-07-04T12:22:51;101018.00;;;29.60
22828;BMP180;11580;52.562;13.418;2022-07-04T12:25:23;101020.00;;;29.50
22828;BMP180;11580;52.562;13.418;2022-07-04T12:27:58;101012.00;;;29.50
22828;BMP180;11580;52.562;13.418;2022-07-04T12:30:26;101016.00;;;29.40
22828;BMP180;11580;52.562;13.418;2022-07-04T12:32:58;101023.00;;;29.20
22828;BMP180;11580;52.562;13.418;2022-07-04T12:35:46;101014.00;;;29.10
22828;BMP180;11580;52.562;13.418;2022-07-04T12:38:18;101022.00;;;29.00
22828;BMP180;11580;52.562;13.418;2022-07-04T12:40:58;101016.00;;;28.90
22828;BMP180;11580;52.562;13.418;2022-07-04T12:43:44;101005.00;;;28.80
22828;BMP180;11580;52.562;13.418;2022-07-04T12:46:14;101004.00;;;28.80
22828;BMP180;11580;52.562;13.418;2022-07-04T12:48:42;100998.00;;;28.70
22828;BMP180;11580;52.562;13.418;2022-07-04T12:51:15;100999.00;;;28.70
22828;BMP180;11580;52.562;13.418;2022-07-04T12:53:46;101011.00;;;28.80
22828;BMP180;11580;52.562;13.418;2022-07-04T12:56:29;101005.00;;;28.90
22828;BMP180;11580;52.562;13.418;2022-07-04T12:58:58;101003.00;;;28.90
22828;BMP180;11580;52.562;13.418;2022-07-04T13:01:26;101002.00;;;29.00
22828;BMP180;11580;52.562;13.418;2022-07-04T13:03:53;101000.00;;;29.00
22828;BMP180;11580;52.562;13.418;2022-07-04T13:06:22;100991.00;;;29.10
22828;BMP180;11580;52.562;13.418;2022-07-04T13:08:49;101004.00;;;29.00
22828;BMP180;11580;52.562;13.418;2022-07-04T13:11:16;101004.00;;;28.90
22828;BMP180;11580;52.562;13.418;2022-07-04T13:14:01;101007.00;;;28.80
22828;BMP180;11580;52.562;13.418;2022-07-04T13:16:29;101006.00;;;28.70
22828;BMP180;11580;52.562;13.418;2022-07-04T13:18:56;101001.00;;;28.60
22828;BMP180;11580;52.562;13.418;2022-07-04T13:21:25;101009.00;;;28.60
22828;BMP180;11580;52.562;13.418;2022-07-04T13:23:53;101008.00;;;28.50
22828;BMP180;11580;52.562;13.418;2022-07-04T13:26:21;100998.00;;;28.40
22828;BMP180;11580;52.562;13.418;2022-07-04T13:28:48;100996.00;;;28.40
22828;BMP180;11580;52.562;13.418;2022-07-04T13:31:15;100995.00;;;28.40
22828;BMP180;11580;52.562;13.418;2022-07-04T13:33:43;100986.00;;;28.40
22828;BMP180;11580;52.562;13.418;2022-07-04T13:36:10;100993.00;;;28.50
22828;BMP180;11580;52.562;13.418;2022-07-04T13:38:40;100998.00;;;28.50
22828;BMP180;11580;52.562;13.418;2022-07-04T13:41:07;101002.00;;;28.60
22828;BMP180;11580;52.562;13.418;2022-07-04T13:43:34;101003.00;;;28.60
22828;BMP180;11580;52.562;13.418;2022-07-04T13:46:02;101004.00;;;28.60
22828;BMP180;11580;52.562;13.418;2022-07-04T13:48:29;100997.00;;;28.60
22828;BMP180;11580;52.562;13.418;2022-07-04T13:50:57;100995.00;;;28.60
22828;BMP180;11580;52.562;13.418;2022-07-04T13:53:24;100995.00;;;28.70
22828;BMP180;11580;52.562;13.418;2022-07-04T13:55:52;101005.00;;;28.70
22828;BMP180;11580;52.562;13.418;2022-07-04T13:58:20;101019.00;;;28.80
22828;BMP180;11580;52.562;13.418;2022-07-04T14:00:47;100999.00;;;28.80